Terminal Aerodrome Forecast
Issued by NWS

Home | Current Version | Previous Version | Text Only | Print | Product List | Glossary On
Versions: 1 2 3 4 5 6 7 8 9 10 11 12 13 14 15 16
000
FTUS45 KVEF 061120
TAFEED
TAF
KEED 061120Z 0612/0712 11008KT P6SM SCT100
     FM061600 17009KT P6SM FEW150
     FM061800 23010KT P6SM FEW150
     FM070000 21007KT P6SM VCSH SCT100 BKN150
     FM070400 22008KT P6SM FEW150=

USA.gov is the U.S. government's official web portal to all federal, state and local government web resources and services.